N444BT LLIB-LLIB

Flight info

Callsign N444BT
Flight time N/A
Altitude 1500
Route CVFR
Aircraft TBM9/L-SDE/C

Departure

Time 2026-05-01 12:37
Airport Rosh Pina Airport (LLIB)

Arrival

Time N/A
Airport Rosh Pina Airport (LLIB)
Time Latitude Longitude Altitude Speed Heading
2026-05-01 12:14 32.97823 35.57297 946 ft 0 kts 73°
2026-05-01 12:31 32.97821 35.57306 946 ft 0 kts 153°
2026-05-01 12:34 32.97819 35.57308 946 ft 4 kts 145°
2026-05-01 12:35 32.97843 35.57359 947 ft 8 kts 339°
2026-05-01 12:35 32.97870 35.57344 948 ft 0 kts 321°
2026-05-01 12:36 32.97897 35.57324 949 ft 25 kts 334°
2026-05-01 12:36 32.98266 35.57075 955 ft 95 kts 329°
2026-05-01 12:37 32.98963 35.56592 1150 ft 136 kts 330°
2026-05-01 12:37 32.99790 35.56015 1384 ft 166 kts 332°
2026-05-01 12:37 33.00822 35.56327 1763 ft 190 kts 41°
2026-05-01 12:37 33.00787 35.57883 1766 ft 229 kts 141°
2026-05-01 12:38 32.99355 35.58674 1925 ft 232 kts 162°
2026-05-01 12:38 32.97868 35.59702 1836 ft 244 kts 157°
2026-05-01 12:38 32.96838 35.59266 1795 ft 173 kts 244°
2026-05-01 12:38 32.96811 35.58161 1551 ft 123 kts 327°
2026-05-01 12:39 32.97411 35.57673 1128 ft 91 kts 316°
2026-05-01 12:39 32.97933 35.57305 986 ft 80 kts 321°
2026-05-01 12:39 32.98379 35.57003 979 ft 89 kts 321°
2026-05-01 12:39 32.98992 35.56603 1371 ft 113 kts 331°
2026-05-01 12:40 32.99817 35.56286 1921 ft 126 kts 336°
2026-05-01 12:40 33.00747 35.56538 2065 ft 183 kts 37°
2026-05-01 12:40 33.00569 35.57983 1558 ft 231 kts 168°
2026-05-01 12:40 32.99006 35.58569 1535 ft 250 kts 154°
2026-05-01 12:41 32.97814 35.59468 1756 ft 141 kts 171°
2026-05-01 12:41 32.96880 35.59356 1508 ft 149 kts 251°
2026-05-01 12:41 32.96932 35.58463 1386 ft 86 kts 300°
2026-05-01 12:41 32.97299 35.57904 1310 ft 82 kts 309°
2026-05-01 12:42 32.97769 35.57420 1003 ft 89 kts 321°
2026-05-01 12:42 32.98059 35.57238 1032 ft 66 kts 319°